createdAt,value
2018-11-11T00:01:26.221Z,65.55
2018-11-11T00:06:29.946Z,65.65
2018-11-11T00:11:33.464Z,65.70
2018-11-11T00:16:36.966Z,65.43
2018-11-11T00:21:40.498Z,65.88
2018-11-11T00:26:44.033Z,65.91
2018-11-11T00:31:47.485Z,65.66
2018-11-11T00:36:50.932Z,65.78
2018-11-11T00:41:54.417Z,66.02
2018-11-11T00:46:57.904Z,66.22
2018-11-11T00:52:01.405Z,66.33
2018-11-11T00:57:04.855Z,66.23
2018-11-11T01:02:08.318Z,66.27
2018-11-11T01:07:11.847Z,66.34
2018-11-11T01:12:15.362Z,66.25
2018-11-11T01:17:19.055Z,66.36
2018-11-11T01:22:22.510Z,66.61
2018-11-11T01:27:26.024Z,66.97
2018-11-11T01:32:29.442Z,66.66
2018-11-11T01:37:32.978Z,66.76
2018-11-11T01:42:36.543Z,66.63
2018-11-11T01:47:40.073Z,66.60
2018-11-11T01:52:43.594Z,66.69
2018-11-11T01:57:47.202Z,66.93
2018-11-11T02:02:50.825Z,66.56
2018-11-11T02:07:54.440Z,66.71
2018-11-11T02:12:57.890Z,67.04
2018-11-11T02:18:01.330Z,66.81
2018-11-11T02:23:04.940Z,66.82
2018-11-11T02:28:08.439Z,67.34
2018-11-11T02:33:11.858Z,67.43
2018-11-11T02:38:15.283Z,67.42
2018-11-11T02:43:18.740Z,67.15
2018-11-11T02:48:22.156Z,67.71
2018-11-11T02:53:25.693Z,67.43
2018-11-11T02:58:29.191Z,67.63
2018-11-11T03:03:32.607Z,67.42
2018-11-11T03:08:36.133Z,67.86
2018-11-11T03:13:39.569Z,68.16
2018-11-11T03:18:43.081Z,67.95
2018-11-11T03:23:46.614Z,68.11
2018-11-11T03:28:50.045Z,67.61
2018-11-11T03:33:53.505Z,67.92
2018-11-11T03:38:56.957Z,68.26
2018-11-11T03:44:00.366Z,67.95
2018-11-11T03:49:03.895Z,67.54
2018-11-11T03:54:07.321Z,67.87
2018-11-11T03:59:10.711Z,67.87
2018-11-11T04:04:14.249Z,68.10
2018-11-11T04:09:17.828Z,68.29
2018-11-11T04:14:21.252Z,68.04
2018-11-11T04:19:25.662Z,67.96
2018-11-11T04:24:29.156Z,68.28
2018-11-11T04:29:32.574Z,68.50
2018-11-11T04:34:36.016Z,68.40
2018-11-11T04:39:40.073Z,68.51
2018-11-11T04:44:43.574Z,68.24
2018-11-11T04:49:47.029Z,68.18
2018-11-11T04:54:50.599Z,68.55
2018-11-11T04:59:54.109Z,68.51
2018-11-11T05:04:57.613Z,68.80
2018-11-11T05:10:01.157Z,68.49
2018-11-11T05:15:04.878Z,68.80
2018-11-11T05:20:09.323Z,68.64
2018-11-11T05:25:13.984Z,68.90
2018-11-11T05:30:17.392Z,68.77
2018-11-11T05:35:20.888Z,68.89
2018-11-11T05:40:24.383Z,68.85
2018-11-11T05:45:27.962Z,68.98
2018-11-11T05:50:31.377Z,68.99
2018-11-11T05:55:34.827Z,68.87
2018-11-11T06:00:38.612Z,68.99
2018-11-11T06:05:42.028Z,68.52
2018-11-11T06:10:45.449Z,69.14
2018-11-11T06:15:48.897Z,69.21
2018-11-11T06:20:52.300Z,68.75
2018-11-11T06:25:55.727Z,69.08
2018-11-11T06:30:59.140Z,68.90
2018-11-11T06:36:02.617Z,68.89
2018-11-11T06:41:06.406Z,69.00
2018-11-11T06:46:09.834Z,69.37
2018-11-11T06:51:13.245Z,68.95
2018-11-11T06:56:16.638Z,69.59
2018-11-11T07:01:20.034Z,69.16
2018-11-11T07:06:24.121Z,69.15
2018-11-11T07:11:27.529Z,69.49
2018-11-11T07:16:30.954Z,69.42
2018-11-11T07:21:34.425Z,69.45
2018-11-11T07:26:38.069Z,69.59
2018-11-11T07:31:41.473Z,69.62
2018-11-11T07:36:44.899Z,70.20
2018-11-11T07:41:48.322Z,69.77
2018-11-11T07:46:51.743Z,70.26
2018-11-11T07:51:55.318Z,70.12
2018-11-11T07:56:58.815Z,70.33
2018-11-11T08:02:02.401Z,70.11
2018-11-11T08:07:06.418Z,59.27
2018-11-11T08:12:09.881Z,61.52
2018-11-11T08:17:13.321Z,61.60
2018-11-11T08:22:16.787Z,61.26
2018-11-11T08:27:20.267Z,60.28
2018-11-11T08:32:24.003Z,60.67
2018-11-11T08:37:27.494Z,60.98
2018-11-11T08:42:33.990Z,60.34
2018-11-11T08:47:37.435Z,60.46
2018-11-11T08:52:41.178Z,60.49
2018-11-11T08:57:44.672Z,60.53
2018-11-11T09:02:48.781Z,60.52
2018-11-11T09:07:52.285Z,59.96
2018-11-11T09:12:55.789Z,61.07
2018-11-11T09:17:59.321Z,60.64
2018-11-11T09:23:03.025Z,61.20
2018-11-11T09:28:06.728Z,60.90
2018-11-11T09:33:10.240Z,60.88
2018-11-11T09:38:13.718Z,60.79
2018-11-11T09:43:17.190Z,60.88
2018-11-11T09:48:20.885Z,60.85
2018-11-11T09:53:24.516Z,60.91
2018-11-11T09:58:28.099Z,60.62
2018-11-11T10:03:35.359Z,60.52
2018-11-11T10:09:48.011Z,60.43
2018-11-11T10:15:01.370Z,60.72
2018-11-11T10:20:11.643Z,60.33
2018-11-11T10:25:25.274Z,60.03
2018-11-11T10:30:39.632Z,60.19
2018-11-11T10:35:47.002Z,60.16
2018-11-11T10:41:04.629Z,60.44
2018-11-11T10:46:16.800Z,60.37
2018-11-11T10:51:20.439Z,60.57
2018-11-11T10:56:24.121Z,61.25
2018-11-11T11:02:30.667Z,61.09
2018-11-11T11:07:34.142Z,60.76
2018-11-11T11:12:38.157Z,61.47
2018-11-11T11:17:42.263Z,60.67
2018-11-11T11:22:46.270Z,60.98
2018-11-11T11:27:50.371Z,60.60
2018-11-11T11:32:53.830Z,60.91
2018-11-11T11:37:57.475Z,59.98
2018-11-11T11:43:00.937Z,60.27
2018-11-11T11:48:04.388Z,60.41
2018-11-11T11:53:08.731Z,61.19
2018-11-11T11:58:20.883Z,60.80
2018-11-11T12:03:24.320Z,62.29
2018-11-11T12:08:27.821Z,63.13
2018-11-11T12:13:31.274Z,64.55
2018-11-11T12:18:34.695Z,64.69
2018-11-11T12:23:38.297Z,64.84
2018-11-11T12:28:41.789Z,64.91
2018-11-11T12:33:45.420Z,64.72
2018-11-11T12:38:48.857Z,64.28
2018-11-11T12:43:52.402Z,64.29
2018-11-11T12:48:56.048Z,59.03
2018-11-11T12:53:59.594Z,58.42
2018-11-11T12:59:03.042Z,58.33
2018-11-11T13:04:06.499Z,57.41
2018-11-11T13:09:10.462Z,57.27
2018-11-11T13:14:13.858Z,57.15
2018-11-11T13:19:17.342Z,58.18
2018-11-11T13:24:20.780Z,58.44
2018-11-11T13:29:24.490Z,58.71
2018-11-11T13:34:28.199Z,59.11
2018-11-11T13:39:31.712Z,59.44
2018-11-11T13:44:35.144Z,59.17
2018-11-11T13:49:38.546Z,59.34
2018-11-11T13:54:42.006Z,59.15
2018-11-11T13:59:45.448Z,59.20
2018-11-11T14:04:48.891Z,59.03
2018-11-11T14:09:52.302Z,59.33
2018-11-11T14:14:55.802Z,58.84
2018-11-11T14:19:59.401Z,59.38
2018-11-11T14:25:02.961Z,58.99
2018-11-11T14:30:09.521Z,58.81
2018-11-11T14:35:13.599Z,59.22
2018-11-11T14:40:22.854Z,58.87
2018-11-11T14:45:26.801Z,59.46
2018-11-11T14:50:30.317Z,59.12
2018-11-11T14:55:33.768Z,59.27
2018-11-11T15:00:37.267Z,59.77
2018-11-11T15:05:40.682Z,59.96
2018-11-11T15:10:44.189Z,59.89
2018-11-11T15:15:47.683Z,60.13
2018-11-11T15:20:51.270Z,60.79
2018-11-11T15:25:54.562Z,60.37
2018-11-11T15:30:58.272Z,60.68
2018-11-11T15:36:02.557Z,60.80
2018-11-11T15:41:05.973Z,61.55
2018-11-11T15:46:09.505Z,61.19
2018-11-11T15:51:13.101Z,61.80
2018-11-11T15:56:16.879Z,61.95
2018-11-11T16:01:20.451Z,61.98
2018-11-11T16:06:24.492Z,62.08
2018-11-11T16:11:27.874Z,61.79
2018-11-11T16:16:31.287Z,62.29
2018-11-11T16:21:34.813Z,62.16
2018-11-11T16:26:38.247Z,62.32
2018-11-11T16:31:41.825Z,62.03
2018-11-11T16:36:45.399Z,62.60
2018-11-11T16:41:48.891Z,62.72
2018-11-11T16:46:52.428Z,62.54
2018-11-11T16:51:55.948Z,62.30
2018-11-11T16:56:59.444Z,62.62
2018-11-11T17:02:03.994Z,62.75
2018-11-11T17:07:07.415Z,62.52
2018-11-11T17:12:10.949Z,62.71
2018-11-11T17:17:14.617Z,62.99
2018-11-11T17:22:18.419Z,61.78
2018-11-11T17:27:21.530Z,61.05
2018-11-11T17:32:24.962Z,60.78
2018-11-11T17:37:28.346Z,61.17
2018-11-11T17:42:31.737Z,61.40
2018-11-11T17:47:35.137Z,61.57
2018-11-11T17:52:39.009Z,61.60
2018-11-11T17:57:43.027Z,61.79
2018-11-11T18:02:46.674Z,62.14
2018-11-11T18:07:50.234Z,62.34
2018-11-11T18:12:53.786Z,62.32
2018-11-11T18:17:57.342Z,62.75
2018-11-11T18:23:01.649Z,62.60
2018-11-11T18:28:05.366Z,63.20
2018-11-11T18:33:08.632Z,62.69
2018-11-11T18:38:12.059Z,62.22
2018-11-11T18:43:15.477Z,62.94
2018-11-11T18:48:18.883Z,62.86
2018-11-11T18:53:22.336Z,62.97
2018-11-11T18:58:25.798Z,63.19
2018-11-11T19:03:29.342Z,63.10
2018-11-11T19:08:32.906Z,62.99
2018-11-11T19:13:36.488Z,63.25
2018-11-11T19:18:40.688Z,62.79
2018-11-11T19:23:44.598Z,62.81
2018-11-11T19:28:48.025Z,62.64
2018-11-11T19:33:51.498Z,62.63
2018-11-11T19:38:54.927Z,63.01
2018-11-11T19:43:58.317Z,63.04
2018-11-11T19:49:01.782Z,62.77
2018-11-11T19:54:05.401Z,63.47
2018-11-11T19:59:08.833Z,63.56
2018-11-11T20:04:12.388Z,63.50
2018-11-11T20:09:15.838Z,63.13
2018-11-11T20:14:19.323Z,63.71
2018-11-11T20:19:22.750Z,63.62
2018-11-11T20:24:26.219Z,64.09
2018-11-11T20:29:29.649Z,63.92
2018-11-11T20:39:35.488Z,64.26
2018-11-11T20:44:39.948Z,63.63
2018-11-11T20:49:43.610Z,63.93
2018-11-11T20:54:48.479Z,64.12
2018-11-11T20:59:51.908Z,64.41
2018-11-11T21:04:55.378Z,63.84
2018-11-11T21:09:58.815Z,64.32
2018-11-11T21:15:02.354Z,64.42
2018-11-11T21:20:07.925Z,64.87
2018-11-11T21:25:11.458Z,64.67
2018-11-11T21:30:16.252Z,64.18
2018-11-11T21:35:19.739Z,63.95
2018-11-11T21:40:24.225Z,64.77
2018-11-11T21:45:28.853Z,64.62
2018-11-11T21:50:32.289Z,64.91
2018-11-11T21:55:35.703Z,65.07
2018-11-11T22:00:39.199Z,65.29
2018-11-11T22:05:42.586Z,64.76
2018-11-11T22:10:46.011Z,65.10
2018-11-11T22:15:49.650Z,65.29
2018-11-11T22:20:53.030Z,65.20
2018-11-11T22:25:56.486Z,65.34
2018-11-11T22:30:59.937Z,65.60
2018-11-11T22:36:03.625Z,65.58
2018-11-11T22:41:07.089Z,65.15
2018-11-11T22:46:10.564Z,65.64
2018-11-11T22:51:14.011Z,65.27
2018-11-11T22:56:17.470Z,65.36
2018-11-11T23:01:22.120Z,65.65
2018-11-11T23:06:25.472Z,65.84
2018-11-11T23:11:28.925Z,65.76
2018-11-11T23:16:32.467Z,65.42
2018-11-11T23:21:36.519Z,65.55
2018-11-11T23:26:40.326Z,65.17
2018-11-11T23:31:44.210Z,65.83
2018-11-11T23:36:47.975Z,65.28
2018-11-11T23:41:52.788Z,65.79
2018-11-11T23:46:56.223Z,65.64
2018-11-11T23:51:59.718Z,66.01
2018-11-11T23:57:10.080Z,66.13
